Time;durP1;ratioP1;P1;durP2;ratioP2;P2;SDS_P1;SDS_P2;PMS_P1;PMS_P2;Temp;Humidity;BMP_temperature;BMP_pressure;BME280_temperature;BME280_humidity;BME280_pressure;Samples;Min_cycle;Max_cycle;Signal;HPM_P1;HPM_P2
2021/12/06 00:01:48;;;;;;;76.20;33.92;;;3.70;95.40;;;;;;5084078;28;20020;-77
2021/12/06 00:04:18;;;;;;;74.07;32.08;;;3.70;95.40;;;;;;5093142;28;20016;-77
2021/12/06 00:06:49;;;;;;;67.70;32.38;;;3.60;95.50;;;;;;5071801;28;20032;-75
2021/12/06 00:09:37;;;;;;;73.43;34.25;;;3.60;95.50;;;;;;5073371;28;20044;-75
2021/12/06 00:12:18;;;;;;;69.53;30.88;;;3.60;95.60;;;;;;5088908;28;20040;-76
2021/12/06 00:14:45;;;;;;;76.93;34.13;;;3.60;95.90;;;;;;5093259;28;20469;-77
2021/12/06 00:17:27;;;;;;;70.38;31.67;;;3.60;95.60;;;;;;5073715;28;20036;-77
2021/12/06 00:19:55;;;;;;;73.47;32.13;;;3.60;95.40;;;;;;5072883;28;20082;-77
2021/12/06 00:22:23;;;;;;;71.13;32.00;;;3.50;95.20;;;;;;5073525;28;20450;-77
2021/12/06 00:24:55;;;;;;;68.57;32.72;;;3.50;95.30;;;;;;5077187;28;20115;-76
2021/12/06 00:27:23;;;;;;;68.78;30.58;;;3.50;95.40;;;;;;5059030;28;20017;-77
2021/12/06 00:29:50;;;;;;;76.97;31.98;;;3.40;95.40;;;;;;5075432;28;20469;-77
2021/12/06 00:32:17;;;;;;;71.90;31.30;;;3.40;95.60;;;;;;5076734;28;20058;-77
2021/12/06 00:34:45;;;;;;;73.85;30.02;;;3.30;95.60;;;;;;5076944;28;20071;-76
2021/12/06 00:37:30;;;;;;;64.03;29.50;;;3.30;95.50;;;;;;5076803;28;20088;-77
2021/12/06 00:40:12;;;;;;;66.22;29.33;;;3.30;95.60;;;;;;5075395;28;20479;-77
2021/12/06 00:42:38;;;;;;;;;;;3.20;95.70;;;;;;5077183;28;20123;-76
2021/12/06 00:45:06;;;;;;;67.43;28.88;;;3.20;95.90;;;;;;5076315;28;20031;-77
2021/12/06 00:47:34;;;;;;;72.32;29.77;;;3.10;96.00;;;;;;5058602;28;20025;-76
2021/12/06 00:50:07;;;;;;;58.03;28.65;;;3.10;96.00;;;;;;5058362;28;20120;-76
2021/12/06 00:52:33;;;;;;;59.75;29.58;;;3.10;96.00;;;;;;5075335;28;20044;-77
2021/12/06 00:55:01;;;;;;;58.90;27.67;;;3.10;96.00;;;;;;5058492;28;20083;-77
2021/12/06 00:57:29;;;;;;;67.78;29.60;;;3.10;96.20;;;;;;5074948;28;20366;-77
2021/12/06 00:59:57;;;;;;;63.30;29.08;;;3.10;96.10;;;;;;5076118;28;20020;-76
2021/12/06 01:02:23;;;;;;;58.92;29.27;;;3.10;96.20;;;;;;5076605;28;20087;-77
2021/12/06 01:04:52;;;;;;;55.80;26.48;;;3.10;96.10;;;;;;5076330;28;20028;-77
2021/12/06 01:07:20;;;;;;;67.15;29.80;;;3.10;96.00;;;;;;5076182;28;20044;-77
2021/12/06 01:09:47;;;;;;;60.60;27.58;;;3.10;96.10;;;;;;5074621;28;20123;-77
2021/12/06 01:12:15;;;;;;;64.70;28.15;;;3.10;96.20;;;;;;5075444;28;20044;-77
2021/12/06 01:14:45;;;;;;;68.82;28.40;;;3.10;96.30;;;;;;5041449;28;20029;-76
2021/12/06 01:17:12;;;;;;;67.70;29.02;;;3.10;96.40;;;;;;5075988;28;20020;-77
2021/12/06 01:19:38;;;;;;;63.65;28.13;;;3.10;96.40;;;;;;5076094;28;20028;-76
2021/12/06 01:25:03;;;;;;;67.60;29.92;;;3.10;96.00;;;;;;5075951;28;20036;-76
2021/12/06 01:28:01;;;;;;;57.40;27.35;;;3.10;96.00;;;;;;5059216;28;20047;-77
2021/12/06 01:39:19;;;;;;;66.53;28.90;;;3.00;96.10;;;;;;5069877;28;20090;-76
2021/12/06 01:41:52;;;;;;;63.25;27.27;;;3.10;96.10;;;;;;5074983;28;20052;-76
2021/12/06 01:44:34;;;;;;;60.53;28.67;;;3.10;96.10;;;;;;5075439;28;20074;-77
2021/12/06 01:47:02;;;;;;;64.50;27.05;;;3.10;95.70;;;;;;5075349;28;20074;-77
2021/12/06 01:49:36;;;;;;;62.03;28.38;;;3.10;95.60;;;;;;5075328;28;20025;-77
2021/12/06 01:52:18;;;;;;;63.28;27.38;;;3.10;95.60;;;;;;5071844;28;20082;-77
2021/12/06 01:54:45;;;;;;;64.30;27.08;;;3.10;95.30;;;;;;5075264;28;20025;-77
2021/12/06 01:57:13;;;;;;;65.35;28.80;;;3.10;95.20;;;;;;5075140;28;20031;-77
2021/12/06 01:59:40;;;;;;;65.35;28.40;;;3.10;95.00;;;;;;5075044;28;20038;-76
2021/12/06 02:02:16;;;;;;;63.30;27.55;;;3.10;94.90;;;;;;5073527;28;20037;-77
2021/12/06 02:04:43;;;;;;;73.45;30.55;;;3.10;94.90;;;;;;5074315;28;20031;-76
2021/12/06 02:07:17;;;;;;;75.05;30.50;;;3.10;94.90;;;;;;5057233;28;20484;-77
2021/12/06 02:09:45;;;;;;;77.70;33.30;;;3.10;95.30;;;;;;5074955;28;20021;-77
2021/12/06 02:12:11;;;;;;;71.88;30.50;;;3.00;94.70;;;;;;5072870;28;20033;-77
2021/12/06 02:14:50;;;;;;;72.32;32.50;;;3.00;94.60;;;;;;5073435;28;20034;-77
2021/12/06 02:17:23;;;;;;;73.13;33.50;;;3.00;94.40;;;;;;5075291;28;20028;-77
2021/12/06 02:20:04;;;;;;;71.30;32.03;;;3.00;94.30;;;;;;5069022;28;20455;-76
2021/12/06 02:22:34;;;;;;;76.10;33.30;;;3.00;94.60;;;;;;5077151;28;20021;-77
2021/12/06 02:25:04;;;;;;;71.00;31.80;;;3.00;94.60;;;;;;5060523;28;20035;-77
2021/12/06 02:27:32;;;;;;;81.80;34.00;;;3.00;94.50;;;;;;5077345;28;20465;-77
2021/12/06 02:30:02;;;;;;;78.28;32.33;;;3.00;94.60;;;;;;5075650;28;20013;-77
2021/12/06 02:32:30;;;;;;;78.30;34.38;;;3.00;94.60;;;;;;5057191;28;20496;-77
2021/12/06 02:34:57;;;;;;;78.65;35.25;;;3.00;94.50;;;;;;5074442;28;20077;-75
2021/12/06 02:37:30;;;;;;;79.10;35.05;;;3.00;94.60;;;;;;5073151;28;20090;-77
2021/12/06 02:39:56;;;;;;;77.15;34.90;;;2.90;94.50;;;;;;5073389;28;20028;-77
2021/12/06 02:42:23;;;;;;;91.35;36.65;;;2.90;94.60;;;;;;5073065;28;20057;-77
2021/12/06 02:44:50;;;;;;;98.05;38.83;;;2.80;94.70;;;;;;5055976;28;20037;-78
2021/12/06 02:47:19;;;;;;;95.93;37.15;;;2.80;94.80;;;;;;5074110;28;20013;-77
2021/12/06 02:49:51;;;;;;;82.80;36.88;;;2.80;94.90;;;;;;5056084;28;20032;-76
2021/12/06 02:52:19;;;;;;;85.00;37.03;;;2.80;94.90;;;;;;5075126;28;20021;-76
2021/12/06 02:54:54;;;;;;;82.57;35.95;;;2.70;94.70;;;;;;5077491;28;20100;-76
2021/12/06 02:57:32;;;;;;;81.97;37.40;;;2.70;94.80;;;;;;5074120;28;20036;-76
2021/12/06 03:00:00;;;;;;;86.53;39.38;;;2.70;94.80;;;;;;5073849;28;20081;-77
2021/12/06 03:02:30;;;;;;;90.82;37.28;;;2.70;94.70;;;;;;5057287;28;20075;-77
2021/12/06 03:04:59;;;;;;;98.13;38.63;;;2.60;94.50;;;;;;5094062;28;20047;-77
2021/12/06 03:07:28;;;;;;;88.65;37.35;;;2.60;94.50;;;;;;5093040;28;20013;-75
2021/12/06 03:09:57;;;;;;;92.57;37.95;;;2.60;94.50;;;;;;5093890;28;20040;-76
2021/12/06 03:12:26;;;;;;;92.43;37.47;;;2.60;94.70;;;;;;5094059;28;20054;-77
2021/12/06 03:14:57;;;;;;;104.50;43.83;;;2.60;94.80;;;;;;5092605;28;20055;-77
2021/12/06 03:17:39;;;;;;;87.57;37.05;;;2.60;94.80;;;;;;5076165;28;20035;-76
2021/12/06 03:20:09;;;;;;;;;;;2.60;94.60;;;;;;5092945;28;20023;-77
2021/12/06 03:22:38;;;;;;;78.90;36.17;;;2.50;94.50;;;;;;5094113;28;19912;-76
2021/12/06 03:25:13;;;;;;;77.88;34.58;;;2.50;94.50;;;;;;5093923;28;20024;-76
2021/12/06 03:27:41;;;;;;;86.78;35.03;;;2.50;94.60;;;;;;5092510;28;20110;-76
2021/12/06 03:30:12;;;;;;;91.03;37.92;;;2.40;94.70;;;;;;5093921;28;20035;-76
2021/12/06 03:32:37;;;;;;;79.13;32.03;;;2.40;94.50;;;;;;5092483;28;20488;-76
2021/12/06 03:35:09;;;;;;;80.85;33.63;;;2.40;94.40;;;;;;5075647;28;20051;-76
2021/12/06 03:37:46;;;;;;;98.43;37.53;;;2.30;94.30;;;;;;5075845;28;20032;-76
2021/12/06 03:40:12;;;;;;;80.15;35.85;;;2.30;94.50;;;;;;5092163;28;20024;-76
2021/12/06 03:42:46;;;;;;;84.40;37.03;;;2.30;94.60;;;;;;5075599;28;20131;-76
2021/12/06 03:45:13;;;;;;;91.00;36.03;;;2.30;94.80;;;;;;5075383;28;20016;-76
2021/12/06 03:47:41;;;;;;;79.22;34.38;;;2.30;95.10;;;;;;5092435;28;20461;-76
2021/12/06 03:50:12;;;;;;;89.32;36.38;;;2.20;95.30;;;;;;5085032;28;20086;-76
2021/12/06 03:52:39;;;;;;;88.10;36.05;;;2.20;95.30;;;;;;5092207;28;20377;-76
2021/12/06 03:55:07;;;;;;;92.60;38.38;;;2.20;95.30;;;;;;5093848;28;20024;-76
2021/12/06 03:57:33;;;;;;;87.93;36.70;;;2.20;95.30;;;;;;5068720;28;20032;-76
2021/12/06 03:59:59;;;;;;;88.35;36.60;;;2.30;95.70;;;;;;5077506;28;20020;-76
2021/12/06 04:02:33;;;;;;;88.75;36.10;;;2.20;95.40;;;;;;5059436;28;20453;-76
2021/12/06 04:05:01;;;;;;;86.55;40.33;;;2.30;95.50;;;;;;5059529;28;20024;-76
2021/12/06 04:07:29;;;;;;;94.95;38.65;;;2.30;95.40;;;;;;5076115;28;20028;-76
2021/12/06 04:09:55;;;;;;;89.63;35.63;;;2.30;95.50;;;;;;5076027;28;20021;-75
2021/12/06 04:12:22;;;;;;;97.28;38.58;;;2.30;95.30;;;;;;5077494;28;20066;-76
2021/12/06 04:14:51;;;;;;;85.88;37.25;;;2.30;95.40;;;;;;5059280;28;20025;-75
2021/12/06 04:17:21;;;;;;;97.05;40.40;;;2.20;95.50;;;;;;5076077;28;20030;-76
2021/12/06 04:19:49;;;;;;;94.53;36.70;;;2.20;95.60;;;;;;5077340;28;20028;-76
2021/12/06 04:22:17;;;;;;;83.40;36.15;;;2.20;95.80;;;;;;5075771;28;20017;-76
2021/12/06 04:24:44;;;;;;;99.28;37.13;;;2.20;95.80;;;;;;5077358;28;20099;-76
2021/12/06 04:27:18;;;;;;;93.07;37.65;;;2.20;95.90;;;;;;5075700;28;20078;-76
2021/12/06 04:29:48;;;;;;;91.68;36.80;;;2.20;96.10;;;;;;5075738;28;20052;-77
2021/12/06 04:32:16;;;;;;;89.07;34.90;;;2.20;96.00;;;;;;5058921;28;20024;-77
2021/12/06 04:34:42;;;;;;;99.97;38.22;;;2.20;96.00;;;;;;5076774;28;20377;-77
2021/12/06 04:37:09;;;;;;;98.65;38.45;;;2.10;96.00;;;;;;5058952;28;20474;-77
2021/12/06 04:39:40;;;;;;;94.25;36.70;;;2.10;96.30;;;;;;5058954;28;20040;-76
2021/12/06 04:42:07;;;;;;;103.90;38.65;;;2.10;96.40;;;;;;5076414;28;20049;-77
2021/12/06 04:44:36;;;;;;;95.75;37.75;;;2.10;96.30;;;;;;5058819;28;20032;-76
2021/12/06 04:47:05;;;;;;;95.68;36.25;;;2.10;96.20;;;;;;5075293;28;20035;-76
2021/12/06 04:49:32;;;;;;;96.40;37.25;;;2.10;96.20;;;;;;5056235;28;20036;-77
2021/12/06 04:52:01;;;;;;;96.82;36.88;;;2.10;96.20;;;;;;5077561;28;20056;-77
2021/12/06 04:55:05;;;;;;;97.22;37.08;;;2.10;96.20;;;;;;5076912;28;20085;-77
2021/12/06 04:57:38;;;;;;;99.70;35.90;;;2.10;96.30;;;;;;5092179;28;20028;-77
2021/12/06 05:00:23;;;;;;;98.35;36.95;;;2.10;96.20;;;;;;5083682;28;20043;-77
2021/12/06 05:02:52;;;;;;;100.00;36.28;;;2.20;96.10;;;;;;5076211;28;20072;-77
2021/12/06 05:05:51;;;;;;;95.63;38.83;;;2.20;95.90;;;;;;5077685;28;20021;-76
2021/12/06 05:08:32;;;;;;;91.80;35.45;;;2.20;95.70;;;;;;5094632;28;20025;-77
2021/12/06 05:11:03;;;;;;;95.90;36.83;;;2.20;95.60;;;;;;5078605;28;20052;-76
2021/12/06 05:13:30;;;;;;;;;;;2.10;95.50;;;;;;5095423;28;20035;-77
2021/12/06 05:15:57;;;;;;;96.30;34.90;;;2.10;95.80;;;;;;5078040;28;19919;-76
2021/12/06 05:18:24;;;;;;;95.95;35.72;;;2.10;96.00;;;;;;5094498;28;20538;-78
2021/12/06 05:20:52;;;;;;;104.10;39.60;;;2.10;96.00;;;;;;5078174;28;20089;-76
2021/12/06 05:23:21;;;;;;;102.78;39.80;;;2.10;96.40;;;;;;5078179;28;20046;-77
2021/12/06 05:25:50;;;;;;;103.78;37.88;;;2.10;96.00;;;;;;5076802;28;20032;-77
2021/12/06 05:28:22;;;;;;;101.45;38.15;;;2.20;96.00;;;;;;5077150;28;20078;-79
2021/12/06 05:30:53;;;;;;;103.97;38.85;;;2.20;96.10;;;;;;5084198;28;20024;-76
2021/12/06 05:33:29;;;;;;;;;;;2.10;95.90;;;;;;5080752;28;20066;-77
2021/12/06 05:36:00;;;;;;;90.57;34.50;;;2.10;95.80;;;;;;5096948;28;20340;-76
2021/12/06 05:38:27;;;;;;;98.82;35.67;;;2.10;95.80;;;;;;5094830;28;20047;-78
2021/12/06 05:40:56;;;;;;;88.35;34.67;;;2.10;95.80;;;;;;5094097;28;20405;-78
2021/12/06 05:43:38;;;;;;;79.78;31.20;;;2.10;95.60;;;;;;5100081;28;20092;-77
2021/12/06 05:46:05;;;;;;;81.63;32.67;;;2.20;96.00;;;;;;5097540;28;20485;-76
2021/12/06 05:48:33;;;;;;;88.22;32.20;;;2.10;95.50;;;;;;5096355;28;20077;-78
2021/12/06 05:50:59;;;;;;;78.22;34.42;;;2.20;95.50;;;;;;5095620;28;20119;-77
2021/12/06 05:53:33;;;;;;;81.47;34.72;;;2.20;95.30;;;;;;5099210;28;20109;-78
2021/12/06 05:56:01;;;;;;;76.93;31.55;;;2.20;95.30;;;;;;5096121;28;20020;-74
2021/12/06 05:58:35;;;;;;;86.45;34.13;;;2.20;95.50;;;;;;5077685;28;20481;-75
2021/12/06 06:01:10;;;;;;;67.22;29.98;;;2.30;95.60;;;;;;5094872;28;20043;-76
2021/12/06 06:03:37;;;;;;;77.75;32.90;;;2.30;95.20;;;;;;5096534;28;20112;-75
2021/12/06 06:06:04;;;;;;;81.47;32.05;;;2.30;95.30;;;;;;5095867;28;20473;-79
2021/12/06 06:08:29;;;;;;;79.07;33.53;;;2.30;95.30;;;;;;5096974;28;20023;-79
2021/12/06 06:10:56;;;;;;;73.75;31.40;;;2.30;95.30;;;;;;5096362;28;20024;-75
2021/12/06 06:13:22;;;;;;;66.25;30.13;;;2.30;95.40;;;;;;5096358;28;20111;-77
2021/12/06 06:15:51;;;;;;;74.07;31.92;;;2.40;95.00;;;;;;5097791;28;20071;-77
2021/12/06 06:18:18;;;;;;;71.53;30.45;;;2.40;94.90;;;;;;5078657;28;20036;-76
2021/12/06 06:20:53;;;;;;;67.50;29.10;;;2.40;94.80;;;;;;5093676;28;20043;-76
2021/12/06 06:23:22;;;;;;;56.40;27.67;;;2.40;94.70;;;;;;5095322;28;20038;-76
2021/12/06 06:25:49;;;;;;;69.25;30.17;;;2.40;94.70;;;;;;5095991;28;20488;-76
2021/12/06 06:28:16;;;;;;;65.60;27.80;;;2.40;94.60;;;;;;5094512;28;20036;-80
2021/12/06 06:30:42;;;;;;;72.90;28.70;;;2.40;94.70;;;;;;5094812;28;20111;-80
2021/12/06 06:33:22;;;;;;;76.30;30.17;;;2.40;94.70;;;;;;5096616;28;20055;-77
2021/12/06 06:35:48;;;;;;;63.08;28.45;;;2.40;94.60;;;;;;5095663;28;20028;-78
2021/12/06 06:38:16;;;;;;;71.35;29.45;;;2.40;94.70;;;;;;5095171;28;20024;-79
2021/12/06 06:40:44;;;;;;;65.90;30.58;;;2.40;94.70;;;;;;5094761;28;20135;-80
2021/12/06 06:43:11;;;;;;;67.55;28.67;;;2.40;94.80;;;;;;5094609;28;20031;-80
2021/12/06 06:45:38;;;;;;;65.57;28.65;;;2.40;95.20;;;;;;5095811;28;20027;-80
2021/12/06 06:48:04;;;;;;;61.35;27.75;;;2.40;94.90;;;;;;5095442;28;20028;-80
2021/12/06 06:50:32;;;;;;;65.45;27.35;;;2.40;94.70;;;;;;5078194;28;20119;-79
2021/12/06 06:52:59;;;;;;;62.35;27.30;;;2.50;94.90;;;;;;5077621;28;20039;-76
2021/12/06 06:55:26;;;;;;;64.03;28.80;;;2.50;94.80;;;;;;5102835;28;20424;-76
2021/12/06 06:58:06;;;;;;;66.20;29.08;;;2.50;94.80;;;;;;5098199;28;20050;-76
2021/12/06 07:00:49;;;;;;;61.08;27.75;;;2.50;94.60;;;;;;5101537;28;20119;-76
2021/12/06 07:03:16;;;;;;;73.15;29.88;;;2.50;94.30;;;;;;5096950;28;20050;-76
2021/12/06 07:05:44;;;;;;;66.80;28.63;;;2.40;94.30;;;;;;5099757;28;20021;-75
2021/12/06 07:08:11;;;;;;;72.22;31.60;;;2.40;94.50;;;;;;5098449;28;20063;-76
2021/12/06 07:10:38;;;;;;;64.18;30.80;;;2.50;94.50;;;;;;5100447;28;20072;-77
2021/12/06 07:13:09;;;;;;;67.70;29.85;;;2.50;94.30;;;;;;5098635;28;20076;-76
2021/12/06 07:15:37;;;;;;;70.53;31.35;;;2.50;94.20;;;;;;5096906;28;20016;-75
2021/12/06 07:18:05;;;;;;;67.07;27.92;;;2.40;94.30;;;;;;5094859;28;20427;-74
2021/12/06 07:20:32;;;;;;;66.70;28.30;;;2.50;94.40;;;;;;5097568;28;20369;-75
2021/12/06 07:23:00;;;;;;;63.88;27.10;;;2.40;94.40;;;;;;5100001;28;20080;-76
2021/12/06 07:25:27;;;;;;;60.30;27.58;;;2.40;94.30;;;;;;5094912;28;20079;-74
2021/12/06 07:27:55;;;;;;;65.25;26.98;;;2.40;94.20;;;;;;5093608;28;20092;-73
2021/12/06 07:30:21;;;;;;;62.78;28.02;;;2.40;94.40;;;;;;5080065;28;20021;-72
2021/12/06 07:32:50;;;;;;;66.22;27.98;;;2.40;94.40;;;;;;5071655;28;20035;-75
2021/12/06 07:35:16;;;;;;;68.47;29.83;;;2.40;94.70;;;;;;5076424;28;20031;-75
2021/12/06 07:37:43;;;;;;;61.97;27.48;;;2.40;94.80;;;;;;5094939;28;20028;-75
2021/12/06 07:40:14;;;;;;;70.13;28.60;;;2.40;94.90;;;;;;5103285;27;20392;-76
2021/12/06 07:42:43;;;;;;;73.05;30.17;;;2.40;94.90;;;;;;5100183;28;20088;-78
2021/12/06 07:45:11;;;;;;;73.10;28.38;;;2.50;94.90;;;;;;5103222;28;20119;-74
2021/12/06 07:47:38;;;;;;;66.22;28.23;;;2.50;94.90;;;;;;5105049;28;20103;-78
2021/12/06 07:50:07;;;;;;;66.90;27.50;;;2.40;94.80;;;;;;5104488;28;20040;-76
2021/12/06 07:52:33;;;;;;;67.15;27.33;;;2.40;94.70;;;;;;5110564;28;20028;-76
2021/12/06 07:55:01;;;;;;;65.80;25.92;;;2.40;94.90;;;;;;5102406;28;20075;-78
2021/12/06 07:57:28;;;;;;;70.80;28.38;;;2.40;95.00;;;;;;5094316;28;20106;-78
2021/12/06 07:59:55;;;;;;;59.20;25.83;;;2.30;95.00;;;;;;5068098;28;20541;-77
2021/12/06 08:02:21;;;;;;;61.05;26.15;;;2.30;95.10;;;;;;5055851;28;20028;-78
2021/12/06 08:04:54;;;;;;;59.55;24.90;;;2.30;95.40;;;;;;5074844;28;20021;-74
2021/12/06 08:07:19;;;;;;;62.78;25.90;;;2.30;95.50;;;;;;5071382;28;20443;-78
2021/12/06 08:09:49;;;;;;;58.15;24.33;;;2.30;95.30;;;;;;5071060;28;20465;-76
2021/12/06 08:12:15;;;;;;;54.65;24.83;;;2.30;95.40;;;;;;5072039;28;20035;-75
2021/12/06 08:14:42;;;;;;;57.20;23.58;;;2.30;95.50;;;;;;5071074;28;20036;-76
2021/12/06 08:17:09;;;;;;;52.72;22.40;;;2.30;95.60;;;;;;5071751;28;20036;-76
2021/12/06 08:19:35;;;;;;;53.35;23.90;;;2.40;95.70;;;;;;5073425;28;20039;-77
2021/12/06 08:22:02;;;;;;;57.38;25.10;;;2.40;95.60;;;;;;5071629;28;20420;-75
2021/12/06 08:24:28;;;;;;;54.50;23.75;;;2.50;95.60;;;;;;5073510;28;20451;-77
2021/12/06 08:26:54;;;;;;;59.58;25.92;;;2.50;95.50;;;;;;5073460;28;20478;-80
2021/12/06 08:29:23;;;;;;;59.72;24.60;;;2.60;95.30;;;;;;5071733;28;20023;-79
2021/12/06 08:31:50;;;;;;;60.33;27.25;;;2.70;95.40;;;;;;5073683;28;20035;-79
2021/12/06 08:34:17;;;;;;;49.47;24.58;;;2.70;95.50;;;;;;5072677;28;20090;-79
2021/12/06 08:36:43;;;;;;;50.47;23.92;;;2.80;95.60;;;;;;5072448;28;20017;-78
2021/12/06 08:39:09;;;;;;;53.75;23.27;;;2.80;95.30;;;;;;5088205;28;20048;-79
2021/12/06 08:41:35;;;;;;;41.53;20.40;;;2.80;95.20;;;;;;5072341;28;20083;-75
2021/12/06 08:44:01;;;;;;;46.50;20.52;;;2.90;95.00;;;;;;5072274;28;20025;-74
2021/12/06 08:46:34;;;;;;;45.08;21.42;;;2.90;95.00;;;;;;5074553;28;20024;-76
2021/12/06 08:49:05;;;;;;;46.08;21.90;;;2.90;94.90;;;;;;5075745;28;20365;-75
2021/12/06 08:51:46;;;;;;;45.90;20.93;;;2.90;94.70;;;;;;5076204;28;20032;-78
2021/12/06 08:54:14;;;;;;;53.08;23.27;;;2.90;94.60;;;;;;5074721;28;20035;-77
2021/12/06 08:56:40;;;;;;;46.38;21.73;;;2.90;94.60;;;;;;5075805;28;20481;-75
2021/12/06 08:59:07;;;;;;;56.58;23.80;;;2.90;94.60;;;;;;5075934;28;20043;-75
2021/12/06 09:01:35;;;;;;;37.20;19.25;;;2.90;94.60;;;;;;5074361;28;20492;-77
2021/12/06 09:04:01;;;;;;;49.95;20.85;;;3.00;94.50;;;;;;5074566;28;20032;-77
2021/12/06 09:06:27;;;;;;;41.95;18.65;;;2.90;94.30;;;;;;5075280;28;20489;-78
2021/12/06 09:08:55;;;;;;;45.60;20.95;;;2.90;94.20;;;;;;5057389;28;20036;-75
2021/12/06 09:11:20;;;;;;;52.50;22.95;;;2.90;94.50;;;;;;5075464;28;20021;-76
2021/12/06 09:13:46;;;;;;;46.88;20.60;;;2.90;94.70;;;;;;5074375;28;20063;-77
2021/12/06 09:16:13;;;;;;;53.75;22.73;;;2.90;94.50;;;;;;5072955;28;20017;-78
2021/12/06 09:18:41;;;;;;;54.28;24.77;;;2.90;94.50;;;;;;5073832;28;20036;-76
2021/12/06 09:21:11;;;;;;;58.92;27.25;;;2.90;94.50;;;;;;5074136;28;20032;-76
2021/12/06 09:23:38;;;;;;;63.70;28.05;;;2.90;94.80;;;;;;5072527;28;20706;-75
2021/12/06 09:26:04;;;;;;;51.72;23.10;;;3.00;94.50;;;;;;5073930;28;20025;-76
2021/12/06 09:28:31;;;;;;;51.70;23.23;;;2.90;94.40;;;;;;5072794;28;20055;-75
2021/12/06 09:30:57;;;;;;;59.65;24.77;;;3.00;94.40;;;;;;5073187;28;20493;-78
2021/12/06 09:33:24;;;;;;;55.95;24.88;;;3.00;94.50;;;;;;5072047;28;20056;-76
2021/12/06 09:35:54;;;;;;;56.63;25.88;;;2.90;94.20;;;;;;5072666;28;20447;-77
2021/12/06 09:38:27;;;;;;;52.17;22.33;;;2.90;94.20;;;;;;5072677;28;20465;-78
2021/12/06 09:40:55;;;;;;;52.00;22.45;;;2.90;94.30;;;;;;5071295;28;20056;-72
2021/12/06 09:43:21;;;;;;;61.20;23.90;;;2.90;94.20;;;;;;5073180;28;20066;-74
2021/12/06 09:45:49;;;;;;;51.70;23.42;;;2.80;94.40;;;;;;5072868;28;20024;-79
2021/12/06 09:48:16;;;;;;;52.90;22.17;;;2.90;94.60;;;;;;5056918;28;20128;-74
2021/12/06 09:51:00;;;;;;;50.97;21.88;;;2.90;94.50;;;;;;5075018;28;20027;-75
2021/12/06 09:53:28;;;;;;;46.80;22.42;;;2.90;94.40;;;;;;5073602;28;20032;-75
2021/12/06 09:55:58;;;;;;;50.22;22.23;;;2.90;94.30;;;;;;5074595;28;20024;-73
2021/12/06 09:58:24;;;;;;;49.65;21.63;;;3.00;94.30;;;;;;5075068;28;20035;-78
2021/12/06 10:00:54;;;;;;;61.47;27.40;;;3.00;94.20;;;;;;5073807;28;20099;-78
2021/12/06 10:03:24;;;;;;;64.25;28.63;;;3.00;94.10;;;;;;5073939;28;20012;-78
2021/12/06 10:05:52;;;;;;;55.67;23.67;;;3.00;94.20;;;;;;5075073;28;20459;-76
2021/12/06 10:08:19;;;;;;;51.90;23.23;;;3.00;94.20;;;;;;5076243;28;20016;-80
2021/12/06 10:10:45;;;;;;;52.45;23.00;;;3.00;94.10;;;;;;5074862;28;20024;-74
2021/12/06 10:13:11;;;;;;;51.00;24.35;;;3.00;94.00;;;;;;5074534;28;20029;-76
2021/12/06 10:15:37;;;;;;;56.38;26.30;;;2.90;93.90;;;;;;5073037;28;20073;-74
2021/12/06 10:18:03;;;;;;;57.63;26.00;;;2.90;94.40;;;;;;5074082;28;20025;-79
2021/12/06 10:20:31;;;;;;;50.45;23.13;;;2.90;94.10;;;;;;5071359;28;20543;-76
2021/12/06 10:22:59;;;;;;;51.28;24.25;;;2.90;94.50;;;;;;5072849;28;20024;-77
2021/12/06 10:25:38;;;;;;;54.40;24.45;;;2.90;94.20;;;;;;5074204;28;20020;-75
2021/12/06 10:28:05;;;;;;;49.97;23.85;;;2.90;94.00;;;;;;5072750;28;20016;-74
2021/12/06 10:30:34;;;;;;;54.08;24.35;;;2.90;93.80;;;;;;5072629;28;20021;-76
2021/12/06 10:33:25;;;;;;;54.88;24.25;;;2.90;93.80;;;;;;5072520;28;20020;-76
2021/12/06 10:35:55;;;;;;;54.70;25.53;;;2.90;93.80;;;;;;5073441;28;20522;-76
2021/12/06 10:38:27;;;;;;;56.13;26.08;;;2.90;94.10;;;;;;5055605;28;20413;-76
2021/12/06 10:41:09;;;;;;;53.60;23.40;;;2.90;94.20;;;;;;5073144;28;20098;-75
2021/12/06 10:43:36;;;;;;;56.00;25.08;;;3.00;94.00;;;;;;5072112;28;20452;-77
2021/12/06 10:46:04;;;;;;;51.40;26.17;;;3.00;93.90;;;;;;5089383;28;20027;-77
2021/12/06 10:48:33;;;;;;;54.47;25.27;;;3.00;94.00;;;;;;5081868;28;20031;-77
2021/12/06 10:51:02;;;;;;;57.10;26.20;;;2.90;94.20;;;;;;5092627;28;20122;-74
2021/12/06 10:53:37;;;;;;;52.90;23.98;;;3.00;94.40;;;;;;5074047;28;20024;-77
2021/12/06 10:56:16;;;;;;;49.05;23.25;;;3.00;94.00;;;;;;5073721;28;20473;-76
2021/12/06 10:58:42;;;;;;;55.08;26.85;;;3.00;94.00;;;;;;5072445;28;20031;-79
2021/12/06 11:01:11;;;;;;;55.65;25.88;;;3.10;93.80;;;;;;5072075;28;20024;-75
2021/12/06 11:03:45;;;;;;;49.08;24.70;;;3.10;93.80;;;;;;5073631;28;20043;-75
2021/12/06 11:06:18;;;;;;;55.35;25.88;;;3.10;93.80;;;;;;5072001;28;20063;-76
2021/12/06 11:08:45;;;;;;;49.13;24.67;;;3.20;93.90;;;;;;5072266;28;20021;-73
2021/12/06 11:11:15;;;;;;;51.38;24.83;;;3.20;93.70;;;;;;5072074;28;20478;-72
2021/12/06 11:13:47;;;;;;;53.10;25.17;;;3.20;93.50;;;;;;5073411;28;20083;-73
2021/12/06 11:16:42;;;;;;;51.85;24.75;;;3.20;93.00;;;;;;5071696;28;20036;-73
2021/12/06 11:19:18;;;;;;;50.60;25.02;;;3.20;92.80;;;;;;5068531;28;20033;-73
2021/12/06 11:21:54;;;;;;;56.40;27.25;;;3.20;92.60;;;;;;5070066;28;20077;-77
2021/12/06 11:24:27;;;;;;;50.15;25.30;;;3.10;92.50;;;;;;5069456;28;20020;-72
2021/12/06 11:27:04;;;;;;;50.63;24.80;;;3.10;92.90;;;;;;5071291;28;20542;-77
2021/12/06 11:29:46;;;;;;;51.03;25.77;;;3.10;93.10;;;;;;5071273;28;20017;-76
2021/12/06 11:32:26;;;;;;;53.35;25.45;;;3.20;92.90;;;;;;5069965;28;20044;-78
2021/12/06 11:34:56;;;;;;;54.92;26.90;;;3.20;93.00;;;;;;5072771;28;20021;-79
2021/12/06 11:37:34;;;;;;;55.33;24.08;;;3.20;93.10;;;;;;5073077;28;20029;-79
2021/12/06 11:40:05;;;;;;;60.10;28.42;;;3.20;92.90;;;;;;5073114;28;20070;-77
2021/12/06 11:42:31;;;;;;;66.65;33.08;;;3.20;92.40;;;;;;5071539;28;20047;-76
2021/12/06 11:44:58;;;;;;;58.33;27.83;;;3.20;92.50;;;;;;5071851;28;20024;-76
2021/12/06 11:47:25;;;;;;;53.97;24.63;;;3.20;92.50;;;;;;5071485;28;20021;-79
2021/12/06 11:49:52;;;;;;;52.47;26.10;;;3.20;92.60;;;;;;5073017;28;20101;-76
2021/12/06 11:52:26;;;;;;;57.65;26.88;;;3.20;92.60;;;;;;5072841;28;20414;-76
2021/12/06 11:55:11;;;;;;;55.33;26.77;;;3.30;92.50;;;;;;5072484;28;20134;-78
2021/12/06 11:57:46;;;;;;;54.30;25.35;;;3.30;92.00;;;;;;5071653;28;20029;-80
2021/12/06 12:00:19;;;;;;;54.75;26.52;;;3.30;92.10;;;;;;5073315;28;20099;-75
2021/12/06 12:02:47;;;;;;;64.05;28.35;;;3.20;92.30;;;;;;5071878;28;20107;-74
2021/12/06 12:05:29;;;;;;;54.83;26.90;;;3.20;92.30;;;;;;5073155;28;20050;-74
2021/12/06 12:08:11;;;;;;;64.45;26.63;;;3.20;92.50;;;;;;5072991;28;20458;-72
2021/12/06 12:10:50;;;;;;;52.10;26.48;;;3.30;92.60;;;;;;5072684;28;20125;-75
2021/12/06 12:13:31;;;;;;;49.97;24.60;;;3.30;92.80;;;;;;5073117;28;20016;-75
2021/12/06 12:16:05;;;;;;;51.90;25.48;;;3.30;93.10;;;;;;5072791;28;20031;-78
2021/12/06 12:18:32;;;;;;;54.50;26.13;;;3.30;92.80;;;;;;5074676;28;20052;-78
2021/12/06 12:20:59;;;;;;;57.03;24.65;;;3.30;92.80;;;;;;5081965;28;20032;-73
2021/12/06 12:23:31;;;;;;;46.75;22.63;;;3.30;92.90;;;;;;5085821;28;20043;-74
2021/12/06 12:26:03;;;;;;;51.20;24.10;;;3.20;93.00;;;;;;5086124;28;20020;-75
2021/12/06 12:28:37;;;;;;;56.10;26.60;;;3.20;92.90;;;;;;5076447;28;20097;-75
2021/12/06 12:31:11;;;;;;;57.88;27.80;;;3.10;93.10;;;;;;5076434;28;20020;-75
2021/12/06 12:33:39;;;;;;;56.00;25.27;;;3.10;93.30;;;;;;5076825;28;20024;-74
2021/12/06 12:36:13;;;;;;;56.13;26.92;;;3.00;93.50;;;;;;5076514;28;20107;-74
2021/12/06 12:38:43;;;;;;;56.75;26.77;;;3.00;93.60;;;;;;5074973;28;20021;-74
2021/12/06 12:41:12;;;;;;;65.63;29.58;;;2.90;93.90;;;;;;5075953;28;20086;-75
2021/12/06 12:43:39;;;;;;;60.67;27.20;;;3.00;94.30;;;;;;5076127;28;20024;-74
2021/12/06 12:46:15;;;;;;;52.85;25.58;;;3.00;94.40;;;;;;5075060;28;20020;-75
2021/12/06 12:48:54;;;;;;;58.97;25.10;;;3.00;94.50;;;;;;5083447;28;20041;-74
2021/12/06 12:51:24;;;;;;;47.65;23.85;;;3.00;94.50;;;;;;5095043;28;20031;-75
2021/12/06 12:54:09;;;;;;;59.20;27.45;;;3.00;94.60;;;;;;5096429;28;20048;-75
2021/12/06 12:56:51;;;;;;;60.58;26.30;;;3.00;94.80;;;;;;5096308;28;20024;-72
2021/12/06 12:59:36;;;;;;;50.97;23.95;;;3.00;94.70;;;;;;5095988;28;20420;-74
2021/12/06 13:02:21;;;;;;;56.08;26.60;;;3.10;94.60;;;;;;5095606;28;20058;-74
2021/12/06 13:04:59;;;;;;;59.13;25.70;;;3.00;94.50;;;;;;5095426;28;20030;-72
2021/12/06 13:07:38;;;;;;;55.35;24.70;;;3.00;94.60;;;;;;5094017;28;20043;-76